sensor_id;sensor_type;location;lat;lon;timestamp;P1;durP1;ratioP1;P2;durP2;ratioP2
29384;SDS011;16367;48.736;9.218;2023-02-15T00:01:53;29.38;;;13.13;;
29384;SDS011;16367;48.736;9.218;2023-02-15T00:03:58;28.13;;;13.18;;
29384;SDS011;16367;48.736;9.218;2023-02-15T00:06:01;32.97;;;14.18;;
29384;SDS011;16367;48.736;9.218;2023-02-15T00:08:03;34.33;;;12.98;;
29384;SDS011;16367;48.736;9.218;2023-02-15T00:10:06;30.00;;;12.75;;
29384;SDS011;16367;48.736;9.218;2023-02-15T00:12:10;35.13;;;13.93;;
29384;SDS011;16367;48.736;9.218;2023-02-15T00:14:14;30.42;;;12.43;;
29384;SDS011;16367;48.736;9.218;2023-02-15T00:16:18;29.95;;;11.68;;
29384;SDS011;16367;48.736;9.218;2023-02-15T00:18:20;28.23;;;11.98;;
29384;SDS011;16367;48.736;9.218;2023-02-15T00:20:24;27.50;;;11.77;;
29384;SDS011;16367;48.736;9.218;2023-02-15T00:22:27;29.98;;;12.50;;
29384;SDS011;16367;48.736;9.218;2023-02-15T00:24:30;28.90;;;11.98;;
29384;SDS011;16367;48.736;9.218;2023-02-15T00:26:32;26.60;;;12.55;;
29384;SDS011;16367;48.736;9.218;2023-02-15T00:28:36;27.88;;;11.43;;
29384;SDS011;16367;48.736;9.218;2023-02-15T00:30:39;31.40;;;13.00;;
29384;SDS011;16367;48.736;9.218;2023-02-15T00:32:41;26.08;;;11.55;;
29384;SDS011;16367;48.736;9.218;2023-02-15T00:34:44;27.95;;;11.98;;
29384;SDS011;16367;48.736;9.218;2023-02-15T00:36:48;37.38;;;13.90;;
29384;SDS011;16367;48.736;9.218;2023-02-15T00:38:51;34.53;;;13.85;;
29384;SDS011;16367;48.736;9.218;2023-02-15T00:40:54;31.23;;;12.88;;
29384;SDS011;16367;48.736;9.218;2023-02-15T00:42:57;31.17;;;12.45;;
29384;SDS011;16367;48.736;9.218;2023-02-15T00:45:00;34.67;;;12.85;;
29384;SDS011;16367;48.736;9.218;2023-02-15T00:47:03;31.15;;;13.73;;
29384;SDS011;16367;48.736;9.218;2023-02-15T00:49:06;31.25;;;13.30;;
29384;SDS011;16367;48.736;9.218;2023-02-15T00:51:09;28.35;;;11.80;;
29384;SDS011;16367;48.736;9.218;2023-02-15T00:53:13;31.92;;;13.35;;
29384;SDS011;16367;48.736;9.218;2023-02-15T00:55:15;32.90;;;12.65;;
29384;SDS011;16367;48.736;9.218;2023-02-15T00:57:18;29.55;;;11.48;;
29384;SDS011;16367;48.736;9.218;2023-02-15T00:59:21;28.25;;;12.15;;
29384;SDS011;16367;48.736;9.218;2023-02-15T01:01:24;31.75;;;12.77;;
29384;SDS011;16367;48.736;9.218;2023-02-15T01:03:27;29.77;;;12.63;;
29384;SDS011;16367;48.736;9.218;2023-02-15T01:05:29;31.88;;;13.60;;
29384;SDS011;16367;48.736;9.218;2023-02-15T01:07:32;28.75;;;12.32;;
29384;SDS011;16367;48.736;9.218;2023-02-15T01:09:36;29.08;;;11.52;;
29384;SDS011;16367;48.736;9.218;2023-02-15T01:11:39;36.92;;;13.85;;
29384;SDS011;16367;48.736;9.218;2023-02-15T01:13:42;33.47;;;13.60;;
29384;SDS011;16367;48.736;9.218;2023-02-15T01:15:44;25.08;;;10.55;;
29384;SDS011;16367;48.736;9.218;2023-02-15T01:17:47;29.50;;;12.35;;
29384;SDS011;16367;48.736;9.218;2023-02-15T01:19:53;34.03;;;13.48;;
29384;SDS011;16367;48.736;9.218;2023-02-15T01:21:56;30.88;;;12.18;;
29384;SDS011;16367;48.736;9.218;2023-02-15T01:23:59;32.90;;;13.63;;
29384;SDS011;16367;48.736;9.218;2023-02-15T01:26:03;29.63;;;12.57;;
29384;SDS011;16367;48.736;9.218;2023-02-15T01:28:06;32.83;;;12.80;;
29384;SDS011;16367;48.736;9.218;2023-02-15T01:30:09;33.17;;;12.63;;
29384;SDS011;16367;48.736;9.218;2023-02-15T01:32:12;32.85;;;13.07;;
29384;SDS011;16367;48.736;9.218;2023-02-15T01:34:15;27.88;;;12.25;;
29384;SDS011;16367;48.736;9.218;2023-02-15T01:36:18;30.45;;;13.30;;
29384;SDS011;16367;48.736;9.218;2023-02-15T01:38:20;31.33;;;13.32;;
29384;SDS011;16367;48.736;9.218;2023-02-15T01:40:23;38.08;;;14.43;;
29384;SDS011;16367;48.736;9.218;2023-02-15T01:42:29;33.97;;;14.07;;
29384;SDS011;16367;48.736;9.218;2023-02-15T01:44:49;33.13;;;13.63;;
29384;SDS011;16367;48.736;9.218;2023-02-15T01:46:53;31.73;;;14.13;;
29384;SDS011;16367;48.736;9.218;2023-02-15T01:48:59;33.85;;;14.25;;
29384;SDS011;16367;48.736;9.218;2023-02-15T01:51:05;32.33;;;12.95;;
29384;SDS011;16367;48.736;9.218;2023-02-15T01:53:10;32.28;;;13.60;;
29384;SDS011;16367;48.736;9.218;2023-02-15T01:55:19;30.48;;;13.20;;
29384;SDS011;16367;48.736;9.218;2023-02-15T01:57:24;34.55;;;13.75;;
29384;SDS011;16367;48.736;9.218;2023-02-15T01:59:31;35.58;;;13.95;;
29384;SDS011;16367;48.736;9.218;2023-02-15T02:01:36;32.80;;;13.95;;
29384;SDS011;16367;48.736;9.218;2023-02-15T02:03:42;33.97;;;14.48;;
29384;SDS011;16367;48.736;9.218;2023-02-15T02:05:52;36.72;;;13.80;;
29384;SDS011;16367;48.736;9.218;2023-02-15T02:07:56;37.92;;;14.88;;
29384;SDS011;16367;48.736;9.218;2023-02-15T02:10:00;37.10;;;15.00;;
29384;SDS011;16367;48.736;9.218;2023-02-15T02:12:04;35.63;;;13.27;;
29384;SDS011;16367;48.736;9.218;2023-02-15T02:14:07;34.50;;;13.68;;
29384;SDS011;16367;48.736;9.218;2023-02-15T02:16:12;34.95;;;14.95;;
29384;SDS011;16367;48.736;9.218;2023-02-15T02:18:22;30.70;;;12.75;;
29384;SDS011;16367;48.736;9.218;2023-02-15T02:20:43;30.90;;;13.68;;
29384;SDS011;16367;48.736;9.218;2023-02-15T02:23:04;29.48;;;12.80;;
29384;SDS011;16367;48.736;9.218;2023-02-15T02:25:31;27.63;;;12.85;;
29384;SDS011;16367;48.736;9.218;2023-02-15T02:27:56;30.17;;;12.13;;
29384;SDS011;16367;48.736;9.218;2023-02-15T02:32:54;31.13;;;12.55;;
29384;SDS011;16367;48.736;9.218;2023-02-15T02:35:10;35.42;;;14.38;;
29384;SDS011;16367;48.736;9.218;2023-02-15T02:37:19;33.20;;;13.68;;
29384;SDS011;16367;48.736;9.218;2023-02-15T02:39:29;34.13;;;13.52;;
29384;SDS011;16367;48.736;9.218;2023-02-15T02:41:38;29.30;;;10.77;;
29384;SDS011;16367;48.736;9.218;2023-02-15T02:43:51;34.95;;;13.00;;
29384;SDS011;16367;48.736;9.218;2023-02-15T02:45:58;32.75;;;12.35;;
29384;SDS011;16367;48.736;9.218;2023-02-15T02:48:07;31.73;;;12.95;;
29384;SDS011;16367;48.736;9.218;2023-02-15T02:50:16;34.55;;;13.65;;
29384;SDS011;16367;48.736;9.218;2023-02-15T02:54:48;37.03;;;14.02;;
29384;SDS011;16367;48.736;9.218;2023-02-15T02:56:51;35.45;;;15.40;;
29384;SDS011;16367;48.736;9.218;2023-02-15T02:58:56;35.47;;;14.73;;
29384;SDS011;16367;48.736;9.218;2023-02-15T03:01:05;34.78;;;12.93;;
29384;SDS011;16367;48.736;9.218;2023-02-15T03:05:18;37.28;;;12.75;;
29384;SDS011;16367;48.736;9.218;2023-02-15T03:07:24;35.05;;;14.07;;
29384;SDS011;16367;48.736;9.218;2023-02-15T03:09:31;39.13;;;17.02;;
29384;SDS011;16367;48.736;9.218;2023-02-15T03:11:45;35.55;;;15.13;;
29384;SDS011;16367;48.736;9.218;2023-02-15T03:13:49;37.03;;;14.57;;
29384;SDS011;16367;48.736;9.218;2023-02-15T03:15:52;38.67;;;15.43;;
29384;SDS011;16367;48.736;9.218;2023-02-15T03:18:13;34.63;;;14.77;;
29384;SDS011;16367;48.736;9.218;2023-02-15T03:20:20;40.40;;;15.50;;
29384;SDS011;16367;48.736;9.218;2023-02-15T03:22:28;35.42;;;14.88;;
29384;SDS011;16367;48.736;9.218;2023-02-15T03:24:34;37.78;;;15.43;;
29384;SDS011;16367;48.736;9.218;2023-02-15T03:28:45;31.77;;;12.85;;
29384;SDS011;16367;48.736;9.218;2023-02-15T03:30:52;31.73;;;12.75;;
29384;SDS011;16367;48.736;9.218;2023-02-15T03:32:58;34.63;;;14.13;;
29384;SDS011;16367;48.736;9.218;2023-02-15T03:35:04;32.85;;;14.68;;
29384;SDS011;16367;48.736;9.218;2023-02-15T03:37:10;33.83;;;13.70;;
29384;SDS011;16367;48.736;9.218;2023-02-15T03:39:17;33.65;;;12.93;;
29384;SDS011;16367;48.736;9.218;2023-02-15T03:41:23;31.13;;;12.98;;
29384;SDS011;16367;48.736;9.218;2023-02-15T03:43:30;34.08;;;13.65;;
29384;SDS011;16367;48.736;9.218;2023-02-15T03:45:40;32.45;;;12.32;;
29384;SDS011;16367;48.736;9.218;2023-02-15T03:47:56;29.98;;;12.95;;
29384;SDS011;16367;48.736;9.218;2023-02-15T03:50:03;36.15;;;13.95;;
29384;SDS011;16367;48.736;9.218;2023-02-15T03:52:30;35.75;;;13.43;;
29384;SDS011;16367;48.736;9.218;2023-02-15T03:54:35;31.77;;;13.23;;
29384;SDS011;16367;48.736;9.218;2023-02-15T03:56:45;34.72;;;13.15;;
29384;SDS011;16367;48.736;9.218;2023-02-15T03:59:08;32.38;;;14.20;;
29384;SDS011;16367;48.736;9.218;2023-02-15T04:01:31;29.25;;;12.98;;
29384;SDS011;16367;48.736;9.218;2023-02-15T04:04:00;27.63;;;11.98;;
29384;SDS011;16367;48.736;9.218;2023-02-15T04:06:08;30.35;;;12.55;;
29384;SDS011;16367;48.736;9.218;2023-02-15T04:08:11;31.73;;;14.07;;
29384;SDS011;16367;48.736;9.218;2023-02-15T04:10:14;31.25;;;12.70;;
29384;SDS011;16367;48.736;9.218;2023-02-15T04:12:34;38.22;;;13.30;;
29384;SDS011;16367;48.736;9.218;2023-02-15T04:14:37;34.70;;;13.50;;
29384;SDS011;16367;48.736;9.218;2023-02-15T04:16:57;31.25;;;12.93;;
29384;SDS011;16367;48.736;9.218;2023-02-15T04:18:59;31.23;;;12.30;;
29384;SDS011;16367;48.736;9.218;2023-02-15T04:21:21;33.95;;;12.95;;
29384;SDS011;16367;48.736;9.218;2023-02-15T04:23:44;31.08;;;13.15;;
29384;SDS011;16367;48.736;9.218;2023-02-15T04:26:04;35.47;;;13.13;;
29384;SDS011;16367;48.736;9.218;2023-02-15T04:28:07;30.30;;;13.57;;
29384;SDS011;16367;48.736;9.218;2023-02-15T04:30:10;38.13;;;14.35;;
29384;SDS011;16367;48.736;9.218;2023-02-15T04:32:13;34.13;;;13.45;;
29384;SDS011;16367;48.736;9.218;2023-02-15T04:34:16;32.60;;;13.23;;
29384;SDS011;16367;48.736;9.218;2023-02-15T04:36:20;35.70;;;14.60;;
29384;SDS011;16367;48.736;9.218;2023-02-15T04:38:23;38.90;;;14.80;;
29384;SDS011;16367;48.736;9.218;2023-02-15T04:40:26;32.53;;;14.45;;
29384;SDS011;16367;48.736;9.218;2023-02-15T04:42:28;33.55;;;14.10;;
29384;SDS011;16367;48.736;9.218;2023-02-15T04:44:31;36.13;;;14.43;;
29384;SDS011;16367;48.736;9.218;2023-02-15T04:46:34;32.15;;;13.45;;
29384;SDS011;16367;48.736;9.218;2023-02-15T04:48:36;43.60;;;16.27;;
29384;SDS011;16367;48.736;9.218;2023-02-15T04:50:39;39.65;;;15.63;;
29384;SDS011;16367;48.736;9.218;2023-02-15T04:52:43;39.65;;;15.05;;
29384;SDS011;16367;48.736;9.218;2023-02-15T04:54:46;37.03;;;15.85;;
29384;SDS011;16367;48.736;9.218;2023-02-15T04:56:49;40.00;;;14.85;;
29384;SDS011;16367;48.736;9.218;2023-02-15T04:58:52;44.13;;;15.80;;
29384;SDS011;16367;48.736;9.218;2023-02-15T05:00:55;36.15;;;14.45;;
29384;SDS011;16367;48.736;9.218;2023-02-15T05:02:58;35.67;;;15.90;;
29384;SDS011;16367;48.736;9.218;2023-02-15T05:05:00;35.35;;;14.77;;
29384;SDS011;16367;48.736;9.218;2023-02-15T05:07:03;40.83;;;15.77;;
29384;SDS011;16367;48.736;9.218;2023-02-15T05:09:07;41.92;;;15.90;;
29384;SDS011;16367;48.736;9.218;2023-02-15T05:11:10;43.88;;;16.60;;
29384;SDS011;16367;48.736;9.218;2023-02-15T05:13:12;40.58;;;16.00;;
29384;SDS011;16367;48.736;9.218;2023-02-15T05:15:15;39.63;;;16.27;;
29384;SDS011;16367;48.736;9.218;2023-02-15T05:17:18;43.40;;;16.02;;
29384;SDS011;16367;48.736;9.218;2023-02-15T05:19:21;41.08;;;16.30;;
29384;SDS011;16367;48.736;9.218;2023-02-15T05:21:25;42.78;;;16.90;;
29384;SDS011;16367;48.736;9.218;2023-02-15T05:23:28;41.58;;;17.00;;
29384;SDS011;16367;48.736;9.218;2023-02-15T05:25:32;46.17;;;17.42;;
29384;SDS011;16367;48.736;9.218;2023-02-15T05:27:53;43.92;;;17.00;;
29384;SDS011;16367;48.736;9.218;2023-02-15T05:30:28;42.15;;;16.58;;
29384;SDS011;16367;48.736;9.218;2023-02-15T05:32:31;47.83;;;17.58;;
29384;SDS011;16367;48.736;9.218;2023-02-15T05:34:33;45.78;;;17.05;;
29384;SDS011;16367;48.736;9.218;2023-02-15T05:36:36;42.58;;;16.20;;
29384;SDS011;16367;48.736;9.218;2023-02-15T05:38:39;40.80;;;15.73;;
29384;SDS011;16367;48.736;9.218;2023-02-15T05:40:43;37.85;;;14.63;;
29384;SDS011;16367;48.736;9.218;2023-02-15T05:42:47;37.47;;;15.70;;
29384;SDS011;16367;48.736;9.218;2023-02-15T05:44:49;37.95;;;16.38;;
29384;SDS011;16367;48.736;9.218;2023-02-15T05:46:52;38.42;;;16.10;;
29384;SDS011;16367;48.736;9.218;2023-02-15T05:48:55;38.88;;;15.90;;
29384;SDS011;16367;48.736;9.218;2023-02-15T05:50:58;34.10;;;14.18;;
29384;SDS011;16367;48.736;9.218;2023-02-15T05:53:01;32.40;;;13.18;;
29384;SDS011;16367;48.736;9.218;2023-02-15T05:55:04;33.28;;;13.82;;
29384;SDS011;16367;48.736;9.218;2023-02-15T05:57:11;34.92;;;14.40;;
29384;SDS011;16367;48.736;9.218;2023-02-15T05:59:13;35.55;;;14.45;;
29384;SDS011;16367;48.736;9.218;2023-02-15T06:01:17;32.75;;;13.32;;
29384;SDS011;16367;48.736;9.218;2023-02-15T06:03:23;33.38;;;13.45;;
29384;SDS011;16367;48.736;9.218;2023-02-15T06:05:29;36.28;;;14.05;;
29384;SDS011;16367;48.736;9.218;2023-02-15T06:07:32;34.45;;;14.55;;
29384;SDS011;16367;48.736;9.218;2023-02-15T06:09:35;35.58;;;13.60;;
29384;SDS011;16367;48.736;9.218;2023-02-15T06:11:37;34.40;;;14.43;;
29384;SDS011;16367;48.736;9.218;2023-02-15T06:13:42;40.65;;;14.27;;
29384;SDS011;16367;48.736;9.218;2023-02-15T06:15:44;34.17;;;13.95;;
29384;SDS011;16367;48.736;9.218;2023-02-15T06:17:47;36.55;;;13.80;;
29384;SDS011;16367;48.736;9.218;2023-02-15T06:19:50;34.70;;;15.02;;
29384;SDS011;16367;48.736;9.218;2023-02-15T06:21:52;37.33;;;14.60;;
29384;SDS011;16367;48.736;9.218;2023-02-15T06:23:55;32.60;;;13.63;;
29384;SDS011;16367;48.736;9.218;2023-02-15T06:25:58;30.35;;;13.13;;
29384;SDS011;16367;48.736;9.218;2023-02-15T06:28:01;32.22;;;13.70;;
29384;SDS011;16367;48.736;9.218;2023-02-15T06:30:06;34.67;;;13.43;;
29384;SDS011;16367;48.736;9.218;2023-02-15T06:32:10;30.05;;;13.27;;
29384;SDS011;16367;48.736;9.218;2023-02-15T06:34:13;31.08;;;12.82;;
29384;SDS011;16367;48.736;9.218;2023-02-15T06:36:15;33.22;;;13.75;;
29384;SDS011;16367;48.736;9.218;2023-02-15T06:38:18;30.63;;;12.55;;
29384;SDS011;16367;48.736;9.218;2023-02-15T06:40:21;32.00;;;14.13;;
29384;SDS011;16367;48.736;9.218;2023-02-15T06:42:24;31.45;;;12.70;;
29384;SDS011;16367;48.736;9.218;2023-02-15T06:44:27;30.20;;;13.43;;
29384;SDS011;16367;48.736;9.218;2023-02-15T06:46:31;31.95;;;13.23;;
29384;SDS011;16367;48.736;9.218;2023-02-15T06:48:34;28.63;;;12.93;;
29384;SDS011;16367;48.736;9.218;2023-02-15T06:50:36;29.42;;;12.82;;
29384;SDS011;16367;48.736;9.218;2023-02-15T06:52:39;28.00;;;12.00;;
29384;SDS011;16367;48.736;9.218;2023-02-15T06:54:42;29.15;;;12.52;;
29384;SDS011;16367;48.736;9.218;2023-02-15T06:56:45;35.17;;;13.77;;
29384;SDS011;16367;48.736;9.218;2023-02-15T06:58:47;35.67;;;14.10;;
29384;SDS011;16367;48.736;9.218;2023-02-15T07:00:51;32.90;;;13.82;;
29384;SDS011;16367;48.736;9.218;2023-02-15T07:02:55;33.72;;;13.80;;
29384;SDS011;16367;48.736;9.218;2023-02-15T07:04:58;35.35;;;14.57;;
29384;SDS011;16367;48.736;9.218;2023-02-15T07:07:01;31.98;;;13.27;;
29384;SDS011;16367;48.736;9.218;2023-02-15T07:09:04;34.72;;;13.60;;
29384;SDS011;16367;48.736;9.218;2023-02-15T07:11:07;33.10;;;14.20;;
29384;SDS011;16367;48.736;9.218;2023-02-15T07:13:27;33.35;;;13.88;;
29384;SDS011;16367;48.736;9.218;2023-02-15T07:15:30;30.50;;;14.45;;
29384;SDS011;16367;48.736;9.218;2023-02-15T07:17:32;31.23;;;13.73;;
29384;SDS011;16367;48.736;9.218;2023-02-15T07:19:38;32.78;;;13.98;;
29384;SDS011;16367;48.736;9.218;2023-02-15T07:21:41;30.85;;;13.38;;
29384;SDS011;16367;48.736;9.218;2023-02-15T07:23:45;31.40;;;13.98;;
29384;SDS011;16367;48.736;9.218;2023-02-15T07:25:47;34.42;;;13.90;;
29384;SDS011;16367;48.736;9.218;2023-02-15T07:27:54;32.30;;;12.90;;
29384;SDS011;16367;48.736;9.218;2023-02-15T07:29:58;30.48;;;13.23;;
29384;SDS011;16367;48.736;9.218;2023-02-15T07:32:02;28.15;;;12.68;;
29384;SDS011;16367;48.736;9.218;2023-02-15T07:34:05;29.85;;;13.15;;
29384;SDS011;16367;48.736;9.218;2023-02-15T07:36:10;27.15;;;12.95;;
29384;SDS011;16367;48.736;9.218;2023-02-15T07:38:13;35.90;;;13.52;;
29384;SDS011;16367;48.736;9.218;2023-02-15T07:40:16;29.13;;;12.73;;
29384;SDS011;16367;48.736;9.218;2023-02-15T07:42:19;26.63;;;13.10;;
29384;SDS011;16367;48.736;9.218;2023-02-15T07:44:23;29.38;;;12.98;;
29384;SDS011;16367;48.736;9.218;2023-02-15T07:46:26;30.23;;;12.32;;
29384;SDS011;16367;48.736;9.218;2023-02-15T07:48:29;25.77;;;11.75;;
29384;SDS011;16367;48.736;9.218;2023-02-15T07:50:32;30.75;;;13.95;;
29384;SDS011;16367;48.736;9.218;2023-02-15T07:52:36;27.80;;;12.10;;
29384;SDS011;16367;48.736;9.218;2023-02-15T07:54:39;27.17;;;12.82;;
29384;SDS011;16367;48.736;9.218;2023-02-15T07:56:41;30.00;;;12.63;;
29384;SDS011;16367;48.736;9.218;2023-02-15T07:58:44;29.05;;;12.45;;
29384;SDS011;16367;48.736;9.218;2023-02-15T08:00:52;23.90;;;10.88;;
29384;SDS011;16367;48.736;9.218;2023-02-15T08:03:02;24.35;;;10.80;;
29384;SDS011;16367;48.736;9.218;2023-02-15T08:05:17;22.67;;;9.82;;
29384;SDS011;16367;48.736;9.218;2023-02-15T08:07:20;21.63;;;8.80;;
29384;SDS011;16367;48.736;9.218;2023-02-15T08:09:24;18.70;;;9.48;;
29384;SDS011;16367;48.736;9.218;2023-02-15T08:11:27;21.67;;;9.65;;
29384;SDS011;16367;48.736;9.218;2023-02-15T08:13:33;18.83;;;9.00;;
29384;SDS011;16367;48.736;9.218;2023-02-15T08:15:36;19.75;;;9.55;;
29384;SDS011;16367;48.736;9.218;2023-02-15T08:17:39;18.67;;;8.82;;
29384;SDS011;16367;48.736;9.218;2023-02-15T08:19:41;18.15;;;9.55;;
29384;SDS011;16367;48.736;9.218;2023-02-15T08:21:44;20.40;;;9.75;;
29384;SDS011;16367;48.736;9.218;2023-02-15T08:23:49;18.35;;;9.43;;
29384;SDS011;16367;48.736;9.218;2023-02-15T08:25:53;18.42;;;9.05;;
29384;SDS011;16367;48.736;9.218;2023-02-15T08:27:55;18.08;;;10.05;;
29384;SDS011;16367;48.736;9.218;2023-02-15T08:29:58;17.42;;;8.85;;
29384;SDS011;16367;48.736;9.218;2023-02-15T08:32:02;17.45;;;9.32;;
29384;SDS011;16367;48.736;9.218;2023-02-15T08:34:06;19.60;;;9.10;;
29384;SDS011;16367;48.736;9.218;2023-02-15T08:36:11;17.52;;;9.05;;
29384;SDS011;16367;48.736;9.218;2023-02-15T08:38:14;17.25;;;9.10;;
29384;SDS011;16367;48.736;9.218;2023-02-15T08:40:17;17.83;;;9.63;;
29384;SDS011;16367;48.736;9.218;2023-02-15T08:42:21;16.42;;;8.85;;
29384;SDS011;16367;48.736;9.218;2023-02-15T08:44:24;17.63;;;8.93;;
29384;SDS011;16367;48.736;9.218;2023-02-15T08:46:27;17.63;;;10.30;;
29384;SDS011;16367;48.736;9.218;2023-02-15T08:48:31;18.88;;;9.73;;
29384;SDS011;16367;48.736;9.218;2023-02-15T08:50:34;16.17;;;9.23;;
29384;SDS011;16367;48.736;9.218;2023-02-15T08:52:37;15.73;;;9.18;;
29384;SDS011;16367;48.736;9.218;2023-02-15T08:54:39;16.20;;;9.63;;
29384;SDS011;16367;48.736;9.218;2023-02-15T08:56:43;16.50;;;9.57;;
29384;SDS011;16367;48.736;9.218;2023-02-15T08:58:47;16.75;;;9.65;;
29384;SDS011;16367;48.736;9.218;2023-02-15T09:00:51;15.40;;;9.82;;
29384;SDS011;16367;48.736;9.218;2023-02-15T09:02:53;16.05;;;9.55;;
29384;SDS011;16367;48.736;9.218;2023-02-15T09:04:56;15.07;;;9.20;;
29384;SDS011;16367;48.736;9.218;2023-02-15T09:06:59;14.85;;;9.00;;
29384;SDS011;16367;48.736;9.218;2023-02-15T09:09:01;15.00;;;9.20;;
29384;SDS011;16367;48.736;9.218;2023-02-15T09:11:05;13.68;;;8.57;;
29384;SDS011;16367;48.736;9.218;2023-02-15T09:13:12;16.15;;;8.73;;
29384;SDS011;16367;48.736;9.218;2023-02-15T09:15:16;15.23;;;8.60;;
29384;SDS011;16367;48.736;9.218;2023-02-15T09:17:19;14.23;;;8.70;;
29384;SDS011;16367;48.736;9.218;2023-02-15T09:19:22;14.05;;;9.02;;
29384;SDS011;16367;48.736;9.218;2023-02-15T09:21:25;15.70;;;8.63;;
29384;SDS011;16367;48.736;9.218;2023-02-15T09:23:28;15.57;;;8.70;;
29384;SDS011;16367;48.736;9.218;2023-02-15T09:25:31;14.98;;;8.75;;
29384;SDS011;16367;48.736;9.218;2023-02-15T09:27:33;14.93;;;8.75;;
29384;SDS011;16367;48.736;9.218;2023-02-15T09:29:37;14.35;;;9.38;;
29384;SDS011;16367;48.736;9.218;2023-02-15T09:31:42;15.73;;;8.93;;
29384;SDS011;16367;48.736;9.218;2023-02-15T09:33:46;15.48;;;9.43;;
29384;SDS011;16367;48.736;9.218;2023-02-15T09:35:50;14.20;;;9.20;;
29384;SDS011;16367;48.736;9.218;2023-02-15T09:37:52;15.40;;;9.25;;
29384;SDS011;16367;48.736;9.218;2023-02-15T09:39:55;14.55;;;9.30;;
29384;SDS011;16367;48.736;9.218;2023-02-15T09:44:38;15.40;;;9.60;;
29384;SDS011;16367;48.736;9.218;2023-02-15T09:47:01;16.88;;;10.73;;
29384;SDS011;16367;48.736;9.218;2023-02-15T09:49:16;15.98;;;10.18;;
29384;SDS011;16367;48.736;9.218;2023-02-15T09:51:37;16.15;;;10.10;;
29384;SDS011;16367;48.736;9.218;2023-02-15T09:53:54;17.45;;;10.15;;
29384;SDS011;16367;48.736;9.218;2023-02-15T09:56:10;15.55;;;8.70;;
29384;SDS011;16367;48.736;9.218;2023-02-15T09:58:23;18.08;;;10.05;;
29384;SDS011;16367;48.736;9.218;2023-02-15T10:00:40;16.55;;;9.57;;
29384;SDS011;16367;48.736;9.218;2023-02-15T10:03:00;15.13;;;9.43;;
29384;SDS011;16367;48.736;9.218;2023-02-15T10:05:17;14.90;;;9.15;;
29384;SDS011;16367;48.736;9.218;2023-02-15T10:07:32;17.73;;;9.30;;
29384;SDS011;16367;48.736;9.218;2023-02-15T10:09:50;16.77;;;10.88;;
29384;SDS011;16367;48.736;9.218;2023-02-15T10:12:14;17.77;;;10.27;;
29384;SDS011;16367;48.736;9.218;2023-02-15T10:14:30;17.05;;;10.57;;
29384;SDS011;16367;48.736;9.218;2023-02-15T10:16:54;17.08;;;9.52;;
29384;SDS011;16367;48.736;9.218;2023-02-15T10:19:07;16.63;;;9.45;;
29384;SDS011;16367;48.736;9.218;2023-02-15T10:21:21;18.23;;;10.88;;
29384;SDS011;16367;48.736;9.218;2023-02-15T10:26:11;15.95;;;9.57;;
29384;SDS011;16367;48.736;9.218;2023-02-15T10:28:20;18.17;;;10.23;;
29384;SDS011;16367;48.736;9.218;2023-02-15T10:30:31;15.60;;;9.63;;
29384;SDS011;16367;48.736;9.218;2023-02-15T10:32:47;18.42;;;10.27;;
29384;SDS011;16367;48.736;9.218;2023-02-15T10:34:58;17.85;;;9.77;;
29384;SDS011;16367;48.736;9.218;2023-02-15T10:37:16;18.23;;;9.90;;
29384;SDS011;16367;48.736;9.218;2023-02-15T10:39:29;20.08;;;10.75;;
29384;SDS011;16367;48.736;9.218;2023-02-15T10:41:42;20.00;;;10.02;;
29384;SDS011;16367;48.736;9.218;2023-02-15T10:43:57;18.30;;;10.07;;
29384;SDS011;16367;48.736;9.218;2023-02-15T10:46:08;18.05;;;10.02;;
29384;SDS011;16367;48.736;9.218;2023-02-15T10:48:22;17.38;;;9.52;;
29384;SDS011;16367;48.736;9.218;2023-02-15T10:50:43;17.25;;;9.48;;
29384;SDS011;16367;48.736;9.218;2023-02-15T10:52:53;16.30;;;9.05;;
29384;SDS011;16367;48.736;9.218;2023-02-15T10:55:07;18.50;;;10.35;;
29384;SDS011;16367;48.736;9.218;2023-02-15T10:57:18;17.83;;;9.05;;
29384;SDS011;16367;48.736;9.218;2023-02-15T10:59:35;21.23;;;9.45;;
29384;SDS011;16367;48.736;9.218;2023-02-15T11:02:01;15.77;;;9.13;;
29384;SDS011;16367;48.736;9.218;2023-02-15T11:04:25;19.20;;;8.80;;
29384;SDS011;16367;48.736;9.218;2023-02-15T11:06:44;16.88;;;8.90;;
29384;SDS011;16367;48.736;9.218;2023-02-15T11:08:54;18.00;;;9.35;;
29384;SDS011;16367;48.736;9.218;2023-02-15T11:11:02;19.15;;;8.48;;
29384;SDS011;16367;48.736;9.218;2023-02-15T11:13:09;15.35;;;8.40;;
29384;SDS011;16367;48.736;9.218;2023-02-15T11:15:17;18.45;;;8.70;;
29384;SDS011;16367;48.736;9.218;2023-02-15T11:17:29;16.83;;;8.35;;
29384;SDS011;16367;48.736;9.218;2023-02-15T11:19:40;18.42;;;8.85;;
29384;SDS011;16367;48.736;9.218;2023-02-15T11:21:53;17.30;;;8.27;;
29384;SDS011;16367;48.736;9.218;2023-02-15T11:23:58;16.75;;;8.35;;
29384;SDS011;16367;48.736;9.218;2023-02-15T11:26:03;15.93;;;7.82;;
29384;SDS011;16367;48.736;9.218;2023-02-15T11:28:10;15.40;;;8.10;;
29384;SDS011;16367;48.736;9.218;2023-02-15T11:30:21;16.30;;;7.85;;
29384;SDS011;16367;48.736;9.218;2023-02-15T11:32:27;16.13;;;8.80;;
29384;SDS011;16367;48.736;9.218;2023-02-15T11:34:32;20.33;;;9.77;;
29384;SDS011;16367;48.736;9.218;2023-02-15T11:36:38;14.82;;;8.85;;
29384;SDS011;16367;48.736;9.218;2023-02-15T11:38:44;17.48;;;8.40;;
29384;SDS011;16367;48.736;9.218;2023-02-15T11:40:52;15.38;;;8.43;;
29384;SDS011;16367;48.736;9.218;2023-02-15T11:43:02;17.38;;;8.65;;
29384;SDS011;16367;48.736;9.218;2023-02-15T11:45:17;17.25;;;8.60;;
29384;SDS011;16367;48.736;9.218;2023-02-15T11:47:24;17.63;;;8.23;;
29384;SDS011;16367;48.736;9.218;2023-02-15T11:49:28;16.40;;;8.25;;
29384;SDS011;16367;48.736;9.218;2023-02-15T11:51:33;18.52;;;9.07;;
29384;SDS011;16367;48.736;9.218;2023-02-15T11:53:37;22.63;;;9.77;;
29384;SDS011;16367;48.736;9.218;2023-02-15T11:55:43;16.67;;;9.13;;
29384;SDS011;16367;48.736;9.218;2023-02-15T11:57:47;22.02;;;10.45;;
29384;SDS011;16367;48.736;9.218;2023-02-15T11:59:56;21.90;;;11.20;;
29384;SDS011;16367;48.736;9.218;2023-02-15T12:02:09;24.33;;;12.70;;
29384;SDS011;16367;48.736;9.218;2023-02-15T12:04:20;21.50;;;11.35;;
29384;SDS011;16367;48.736;9.218;2023-02-15T12:06:28;20.98;;;11.07;;
29384;SDS011;16367;48.736;9.218;2023-02-15T12:08:37;20.88;;;11.82;;
29384;SDS011;16367;48.736;9.218;2023-02-15T12:10:48;23.25;;;11.68;;
29384;SDS011;16367;48.736;9.218;2023-02-15T12:13:08;25.33;;;12.77;;
29384;SDS011;16367;48.736;9.218;2023-02-15T12:15:13;21.83;;;11.25;;
29384;SDS011;16367;48.736;9.218;2023-02-15T12:17:16;21.48;;;10.82;;
29384;SDS011;16367;48.736;9.218;2023-02-15T12:19:24;24.20;;;11.13;;
29384;SDS011;16367;48.736;9.218;2023-02-15T12:21:33;21.92;;;12.07;;
29384;SDS011;16367;48.736;9.218;2023-02-15T12:23:43;27.75;;;11.77;;
29384;SDS011;16367;48.736;9.218;2023-02-15T12:25:52;21.80;;;11.65;;
29384;SDS011;16367;48.736;9.218;2023-02-15T12:27:59;25.52;;;12.00;;
29384;SDS011;16367;48.736;9.218;2023-02-15T12:30:03;22.70;;;12.13;;
29384;SDS011;16367;48.736;9.218;2023-02-15T12:32:09;25.90;;;12.30;;
29384;SDS011;16367;48.736;9.218;2023-02-15T12:34:21;23.45;;;11.63;;
29384;SDS011;16367;48.736;9.218;2023-02-15T12:36:28;23.33;;;11.93;;
29384;SDS011;16367;48.736;9.218;2023-02-15T12:38:32;25.63;;;11.65;;
29384;SDS011;16367;48.736;9.218;2023-02-15T12:40:37;24.50;;;11.40;;